createdAt,value
2017-08-27T00:00:27.657Z,86.90
2017-08-27T00:02:55.300Z,86.90
2017-08-27T00:05:23.006Z,87.40
2017-08-27T00:07:50.697Z,86.80
2017-08-27T00:10:18.318Z,87.20
2017-08-27T00:12:45.980Z,88.10
2017-08-27T00:15:13.649Z,87.70
2017-08-27T00:17:41.311Z,87.40
2017-08-27T00:20:09.179Z,88.00
2017-08-27T00:22:36.946Z,88.90
2017-08-27T00:25:04.616Z,89.10
2017-08-27T00:27:32.313Z,90.00
2017-08-27T00:29:59.996Z,89.40
2017-08-27T00:32:27.635Z,89.90
2017-08-27T00:34:55.308Z,90.10
2017-08-27T00:37:23.042Z,90.20
2017-08-27T00:39:50.729Z,90.10
2017-08-27T00:42:18.497Z,90.50
2017-08-27T00:44:46.219Z,90.20
2017-08-27T00:47:13.990Z,90.10
2017-08-27T00:49:41.679Z,90.20
2017-08-27T00:52:09.380Z,90.20
2017-08-27T00:54:37.032Z,90.00
2017-08-27T00:57:04.732Z,90.20
2017-08-27T00:59:32.391Z,90.20
2017-08-27T01:02:00.060Z,90.40
2017-08-27T01:04:27.681Z,90.20
2017-08-27T01:06:55.337Z,90.20
2017-08-27T01:09:23.022Z,90.20
2017-08-27T01:11:50.690Z,90.40
2017-08-27T01:14:18.301Z,90.40
2017-08-27T01:16:45.979Z,90.30
2017-08-27T01:19:13.700Z,90.50
2017-08-27T01:21:41.305Z,90.30
2017-08-27T01:24:09.005Z,90.50
2017-08-27T01:26:36.746Z,90.50
2017-08-27T01:29:04.558Z,90.70
2017-08-27T01:31:32.156Z,90.60
2017-08-27T01:33:59.922Z,90.90
2017-08-27T01:36:27.583Z,90.90
2017-08-27T01:38:55.349Z,91.10
2017-08-27T01:41:22.972Z,91.60
2017-08-27T01:43:51.526Z,91.70
2017-08-27T01:46:19.228Z,91.80
2017-08-27T01:48:46.863Z,91.40
2017-08-27T01:51:14.507Z,91.70
2017-08-27T01:53:42.202Z,91.80
2017-08-27T01:56:09.805Z,91.60
2017-08-27T01:58:37.467Z,91.80
2017-08-27T02:01:05.384Z,92.00
2017-08-27T02:03:33.293Z,91.80
2017-08-27T02:06:00.934Z,92.00
2017-08-27T02:08:28.689Z,91.90
2017-08-27T02:10:56.416Z,91.80
2017-08-27T02:13:24.072Z,92.00
2017-08-27T02:15:51.838Z,91.70
2017-08-27T02:18:19.628Z,91.70
2017-08-27T02:20:47.398Z,91.70
2017-08-27T02:23:15.089Z,91.70
2017-08-27T02:25:42.760Z,91.70
2017-08-27T02:28:10.442Z,91.70
2017-08-27T02:30:38.182Z,91.80
2017-08-27T02:33:05.875Z,91.70
2017-08-27T02:35:33.664Z,91.70
2017-08-27T02:38:01.300Z,91.70
2017-08-27T02:40:34.252Z,92.00
2017-08-27T02:43:01.929Z,91.90
2017-08-27T02:45:29.611Z,92.00
2017-08-27T02:47:57.329Z,92.00
2017-08-27T02:50:24.967Z,92.20
2017-08-27T02:52:52.634Z,92.10
2017-08-27T02:55:20.396Z,92.30
2017-08-27T02:57:48.054Z,92.40
2017-08-27T03:00:15.689Z,92.40
2017-08-27T03:02:43.320Z,92.40
2017-08-27T03:05:10.959Z,92.40
2017-08-27T03:07:38.645Z,92.70
2017-08-27T03:10:06.363Z,92.80
2017-08-27T03:12:34.072Z,92.90
2017-08-27T03:15:01.744Z,92.90
2017-08-27T03:17:29.449Z,93.10
2017-08-27T03:19:57.662Z,93.20
2017-08-27T03:22:25.345Z,93.40
2017-08-27T03:24:52.991Z,93.50
2017-08-27T03:27:20.662Z,93.40
2017-08-27T03:29:48.317Z,93.50
2017-08-27T03:32:15.948Z,93.50
2017-08-27T03:34:43.706Z,93.60
2017-08-27T03:37:11.296Z,93.80
2017-08-27T03:39:38.938Z,93.70
2017-08-27T03:42:06.562Z,93.60
2017-08-27T03:44:34.180Z,93.60
2017-08-27T03:47:02.005Z,93.80
2017-08-27T03:49:29.663Z,93.80
2017-08-27T03:51:57.335Z,93.80
2017-08-27T03:54:24.971Z,93.90
2017-08-27T03:56:52.638Z,94.00
2017-08-27T03:59:20.355Z,94.20
2017-08-27T04:01:48.013Z,94.20
2017-08-27T04:04:15.738Z,94.00
2017-08-27T04:06:43.433Z,94.20
2017-08-27T04:09:11.975Z,94.30
2017-08-27T04:11:39.679Z,94.40
2017-08-27T04:14:07.353Z,94.40
2017-08-27T04:16:35.061Z,94.80
2017-08-27T04:19:02.925Z,94.60
2017-08-27T04:21:30.767Z,94.70
2017-08-27T04:23:58.433Z,94.70
2017-08-27T04:26:26.069Z,94.80
2017-08-27T04:28:53.757Z,94.70
2017-08-27T04:31:21.365Z,95.00
2017-08-27T04:33:48.985Z,95.00
2017-08-27T04:36:16.654Z,94.70
2017-08-27T04:38:44.306Z,94.50
2017-08-27T04:41:11.975Z,94.80
2017-08-27T04:43:43.551Z,94.40
2017-08-27T04:46:11.167Z,94.40
2017-08-27T04:48:38.747Z,94.80
2017-08-27T04:51:06.433Z,94.60
2017-08-27T04:53:42.653Z,94.60
2017-08-27T04:56:10.276Z,94.70
2017-08-27T04:58:46.021Z,94.80
2017-08-27T05:01:21.559Z,94.50
2017-08-27T05:09:34.889Z,94.70
2017-08-27T05:12:02.467Z,94.70
2017-08-27T05:14:30.153Z,94.70
2017-08-27T05:16:57.944Z,94.40
2017-08-27T05:19:25.597Z,94.40
2017-08-27T05:21:53.258Z,94.30
2017-08-27T05:24:21.094Z,94.50
2017-08-27T05:26:48.692Z,94.50
2017-08-27T05:29:16.354Z,94.20
2017-08-27T05:31:44.106Z,93.90
2017-08-27T05:34:11.750Z,94.10
2017-08-27T05:36:39.374Z,93.80
2017-08-27T05:39:06.992Z,93.40
2017-08-27T05:41:34.601Z,93.30
2017-08-27T05:44:02.229Z,92.70
2017-08-27T05:46:31.402Z,92.30
2017-08-27T05:48:59.081Z,92.30
2017-08-27T05:51:26.795Z,91.80
2017-08-27T05:53:54.393Z,91.80
2017-08-27T05:56:21.980Z,91.60
2017-08-27T05:58:49.664Z,91.00
2017-08-27T06:01:17.298Z,90.60
2017-08-27T06:03:44.921Z,91.00
2017-08-27T06:06:12.566Z,91.20
2017-08-27T06:08:57.184Z,90.50
2017-08-27T06:11:24.861Z,90.20
2017-08-27T06:13:52.488Z,88.50
2017-08-27T06:16:20.125Z,88.00
2017-08-27T06:18:47.761Z,87.90
2017-08-27T06:21:15.386Z,87.00
2017-08-27T06:23:43.028Z,86.40
2017-08-27T06:26:11.302Z,86.00
2017-08-27T06:28:55.502Z,86.30
2017-08-27T06:31:33.954Z,86.40
2017-08-27T06:34:02.496Z,85.00
2017-08-27T06:36:30.122Z,87.20
2017-08-27T06:38:57.837Z,87.00
2017-08-27T06:41:25.648Z,88.90
2017-08-27T06:43:53.266Z,88.90
2017-08-27T06:46:20.877Z,87.00
2017-08-27T06:48:48.530Z,87.20
2017-08-27T06:51:16.182Z,87.30
2017-08-27T06:53:43.806Z,85.00
2017-08-27T06:56:11.435Z,82.50
2017-08-27T06:58:40.237Z,77.70
2017-08-27T07:01:07.921Z,78.20
2017-08-27T07:03:35.526Z,78.40
2017-08-27T07:06:03.267Z,75.50
2017-08-27T07:08:30.858Z,73.10
2017-08-27T07:10:58.645Z,76.90
2017-08-27T07:13:26.394Z,75.30
2017-08-27T07:15:54.121Z,72.60
2017-08-27T07:18:21.841Z,70.10
2017-08-27T07:21:02.778Z,69.60
2017-08-27T07:23:30.401Z,70.50
2017-08-27T07:25:57.995Z,68.10
2017-08-27T07:28:25.690Z,69.80
2017-08-27T07:30:53.355Z,68.60
2017-08-27T07:33:21.016Z,68.20
2017-08-27T07:35:48.624Z,71.40
2017-08-27T07:38:16.281Z,69.50
2017-08-27T07:40:43.905Z,65.60
2017-08-27T07:43:11.599Z,63.80
2017-08-27T07:45:39.382Z,61.00
2017-08-27T07:48:07.032Z,58.20
2017-08-27T07:50:34.732Z,56.00
2017-08-27T07:53:02.424Z,58.80
2017-08-27T07:55:30.072Z,59.70
2017-08-27T07:57:57.724Z,60.30
2017-08-27T08:00:25.339Z,58.40
2017-08-27T08:02:53.015Z,57.50
2017-08-27T08:05:20.652Z,59.10
2017-08-27T08:07:48.271Z,59.70
2017-08-27T08:10:15.920Z,60.30
2017-08-27T08:12:43.550Z,60.50
2017-08-27T08:15:11.150Z,58.40
2017-08-27T08:17:38.842Z,59.80
2017-08-27T08:20:06.507Z,57.60
2017-08-27T08:22:34.200Z,56.60
2017-08-27T08:25:03.185Z,56.00
2017-08-27T08:27:30.868Z,55.30
2017-08-27T08:29:58.574Z,57.20
2017-08-27T08:32:26.168Z,54.30
2017-08-27T08:34:53.814Z,54.80
2017-08-27T08:37:21.483Z,52.50
2017-08-27T08:39:49.091Z,54.60
2017-08-27T08:42:16.706Z,53.30
2017-08-27T08:44:44.413Z,52.70
2017-08-27T08:47:12.068Z,52.90
2017-08-27T08:49:39.710Z,52.70
2017-08-27T08:52:07.476Z,52.60
2017-08-27T08:54:35.158Z,51.90
2017-08-27T08:57:02.849Z,50.30
2017-08-27T08:59:30.495Z,50.20
2017-08-27T09:01:58.102Z,52.60
2017-08-27T09:04:25.741Z,54.40
2017-08-27T09:06:53.443Z,50.60
2017-08-27T09:09:21.140Z,52.30
2017-08-27T09:11:48.771Z,51.60
2017-08-27T09:14:16.363Z,52.50
2017-08-27T09:16:44.047Z,50.80
2017-08-27T09:19:11.714Z,52.50
2017-08-27T09:21:39.660Z,53.50
2017-08-27T09:24:07.413Z,53.20
2017-08-27T09:26:35.092Z,52.30
2017-08-27T09:29:02.716Z,50.40
2017-08-27T09:31:30.344Z,50.80
2017-08-27T09:33:58.058Z,52.70
2017-08-27T09:36:25.791Z,52.10
2017-08-27T09:38:53.401Z,50.10
2017-08-27T09:41:21.028Z,50.50
2017-08-27T09:43:48.620Z,49.60
2017-08-27T09:46:16.434Z,50.10
2017-08-27T09:48:45.223Z,48.30
2017-08-27T09:51:12.963Z,48.90
2017-08-27T09:53:40.584Z,48.80
2017-08-27T09:56:08.236Z,50.90
2017-08-27T09:58:35.840Z,50.40
2017-08-27T10:01:03.540Z,51.00
2017-08-27T10:03:31.148Z,48.50
2017-08-27T10:05:58.856Z,46.40
2017-08-27T10:08:26.586Z,47.40
2017-08-27T10:10:54.212Z,48.50
2017-08-27T10:13:21.820Z,47.10
2017-08-27T10:15:49.484Z,46.20
2017-08-27T10:18:17.117Z,46.80
2017-08-27T10:20:44.716Z,46.10
2017-08-27T10:23:12.666Z,49.30
2017-08-27T10:25:41.419Z,48.90
2017-08-27T10:28:09.089Z,49.30
2017-08-27T10:30:36.738Z,45.80
2017-08-27T10:33:04.399Z,46.00
2017-08-27T10:35:32.056Z,46.90
2017-08-27T10:37:59.718Z,44.10
2017-08-27T10:40:27.333Z,45.70
2017-08-27T10:42:54.948Z,42.70
2017-08-27T10:45:22.595Z,40.60
2017-08-27T10:47:50.345Z,41.30
2017-08-27T10:50:17.979Z,40.10
2017-08-27T10:52:45.782Z,42.20
2017-08-27T10:55:13.366Z,41.50
2017-08-27T10:57:41.032Z,40.40
2017-08-27T11:00:12.913Z,40.30
2017-08-27T11:02:41.168Z,40.80
2017-08-27T11:05:08.841Z,39.50
2017-08-27T11:07:41.718Z,40.80
2017-08-27T11:10:09.388Z,39.80
2017-08-27T11:12:37.921Z,38.40
2017-08-27T11:15:05.586Z,38.20
2017-08-27T11:17:33.254Z,39.00
2017-08-27T11:20:00.954Z,39.70
2017-08-27T11:22:28.569Z,42.50
2017-08-27T11:24:56.322Z,42.10
2017-08-27T11:27:24.896Z,41.90
2017-08-27T11:29:52.476Z,43.60
2017-08-27T11:32:20.063Z,42.90
2017-08-27T11:34:47.721Z,42.00
2017-08-27T11:37:15.328Z,41.20
2017-08-27T11:39:42.945Z,42.10
2017-08-27T11:42:10.667Z,42.50
2017-08-27T11:44:38.279Z,45.70
2017-08-27T11:47:05.876Z,44.20
2017-08-27T11:49:33.562Z,41.70
2017-08-27T11:52:01.255Z,41.30
2017-08-27T11:54:28.907Z,42.90
2017-08-27T11:56:56.547Z,44.20
2017-08-27T11:59:24.182Z,44.20
2017-08-27T12:01:51.784Z,44.30
2017-08-27T12:04:19.510Z,43.00
2017-08-27T12:06:47.119Z,44.70
2017-08-27T12:09:14.786Z,45.20
2017-08-27T12:11:42.424Z,44.50
2017-08-27T12:14:10.067Z,43.90
2017-08-27T12:16:37.779Z,43.00
2017-08-27T12:19:05.419Z,43.60
2017-08-27T12:21:33.008Z,44.40
2017-08-27T12:24:00.628Z,45.20
2017-08-27T12:26:28.280Z,45.40
2017-08-27T12:28:55.894Z,46.30
2017-08-27T12:31:23.500Z,45.90
2017-08-27T12:33:51.109Z,45.50
2017-08-27T12:36:18.695Z,43.90
2017-08-27T12:38:46.439Z,44.40
2017-08-27T12:41:14.112Z,43.50
2017-08-27T12:43:41.772Z,42.80
2017-08-27T12:46:09.472Z,43.30
2017-08-27T12:48:37.189Z,45.10
2017-08-27T12:51:21.291Z,43.50
2017-08-27T12:53:48.957Z,44.20
2017-08-27T12:56:16.628Z,46.60
2017-08-27T12:58:44.393Z,44.10
2017-08-27T13:01:12.064Z,44.00
2017-08-27T13:03:39.671Z,43.90
2017-08-27T13:06:07.305Z,44.20
2017-08-27T13:08:34.926Z,43.30
2017-08-27T13:11:02.521Z,44.20
2017-08-27T13:13:30.194Z,46.80
2017-08-27T13:15:57.852Z,45.70
2017-08-27T13:18:25.433Z,43.90
2017-08-27T13:20:53.008Z,45.60
2017-08-27T13:23:20.659Z,44.50
2017-08-27T13:25:48.303Z,45.50
2017-08-27T13:28:15.951Z,45.20
2017-08-27T13:30:43.668Z,45.80
2017-08-27T13:33:11.248Z,45.90
2017-08-27T13:35:38.920Z,45.40
2017-08-27T13:38:06.529Z,45.50
2017-08-27T13:40:34.135Z,45.70
2017-08-27T13:43:01.776Z,44.80
2017-08-27T13:45:29.408Z,45.40
2017-08-27T13:47:57.051Z,45.00
2017-08-27T13:50:24.638Z,46.00
2017-08-27T13:52:52.274Z,47.10
2017-08-27T13:55:19.907Z,45.90
2017-08-27T13:57:47.505Z,46.00
2017-08-27T14:00:15.147Z,45.60
2017-08-27T14:02:42.800Z,46.20
2017-08-27T14:05:10.438Z,45.30
2017-08-27T14:07:38.133Z,44.80
2017-08-27T14:10:05.736Z,45.30
2017-08-27T14:12:33.332Z,45.80
2017-08-27T14:15:00.971Z,45.90
2017-08-27T14:17:28.629Z,44.60
2017-08-27T14:19:56.274Z,45.10
2017-08-27T14:22:23.947Z,44.00
2017-08-27T14:24:51.535Z,45.80
2017-08-27T14:27:19.183Z,46.50
2017-08-27T14:29:46.788Z,47.20
2017-08-27T14:32:14.466Z,46.50
2017-08-27T14:34:42.208Z,49.10
2017-08-27T14:37:09.805Z,45.60
2017-08-27T14:39:37.403Z,47.20
2017-08-27T14:42:05.126Z,46.20
2017-08-27T14:44:32.708Z,46.40
2017-08-27T14:47:00.301Z,46.00
2017-08-27T14:49:27.960Z,46.20
2017-08-27T14:51:55.543Z,46.80
2017-08-27T14:54:23.132Z,46.40
2017-08-27T14:56:50.750Z,47.80
2017-08-27T14:59:18.374Z,47.10
2017-08-27T15:01:45.969Z,47.40
2017-08-27T15:04:13.600Z,47.40
2017-08-27T15:06:41.248Z,46.70
2017-08-27T15:09:08.923Z,47.30
2017-08-27T15:11:36.546Z,46.80
2017-08-27T15:14:04.188Z,47.30
2017-08-27T15:16:31.891Z,47.70
2017-08-27T15:18:59.480Z,47.60
2017-08-27T15:21:27.194Z,45.90
2017-08-27T15:23:54.951Z,46.50
2017-08-27T15:26:22.554Z,47.20
2017-08-27T15:28:50.518Z,47.60
2017-08-27T15:31:18.525Z,46.90
2017-08-27T15:33:46.199Z,47.90
2017-08-27T15:36:13.838Z,49.90
2017-08-27T15:38:41.449Z,49.40
2017-08-27T15:41:09.678Z,48.70
2017-08-27T15:43:37.864Z,48.70
2017-08-27T15:46:05.533Z,47.80
2017-08-27T15:48:33.157Z,47.10
2017-08-27T15:51:08.019Z,47.70
2017-08-27T15:53:35.634Z,48.00
2017-08-27T15:56:03.257Z,48.90
2017-08-27T15:58:30.879Z,49.10
2017-08-27T16:00:58.572Z,49.50
2017-08-27T16:03:26.277Z,50.30
2017-08-27T16:05:53.973Z,49.50
2017-08-27T16:08:21.604Z,49.40
2017-08-27T16:10:49.210Z,48.90
2017-08-27T16:13:16.788Z,48.50
2017-08-27T16:15:44.414Z,48.60
2017-08-27T16:18:11.986Z,48.00
2017-08-27T16:20:39.652Z,49.00
2017-08-27T16:23:07.262Z,49.50
2017-08-27T16:25:34.869Z,50.10
2017-08-27T16:28:02.525Z,49.20
2017-08-27T16:30:30.196Z,50.00
2017-08-27T16:32:57.826Z,49.70
2017-08-27T16:35:25.508Z,49.60
2017-08-27T16:37:53.152Z,50.10
2017-08-27T16:40:20.763Z,49.90
2017-08-27T16:42:48.427Z,50.40
2017-08-27T16:45:16.143Z,50.10
2017-08-27T16:47:43.776Z,50.40
2017-08-27T16:50:11.409Z,50.30
2017-08-27T16:52:39.074Z,50.10
2017-08-27T16:55:06.711Z,50.50
2017-08-27T16:57:34.350Z,50.20
2017-08-27T17:00:01.981Z,50.70
2017-08-27T17:02:29.669Z,50.70
2017-08-27T17:04:57.343Z,50.80
2017-08-27T17:07:25.020Z,51.30
2017-08-27T17:09:52.639Z,51.30
2017-08-27T17:12:20.361Z,51.10
2017-08-27T17:14:47.988Z,51.00
2017-08-27T17:17:15.666Z,51.60
2017-08-27T17:19:43.289Z,52.30
2017-08-27T17:22:10.879Z,52.50
2017-08-27T17:24:38.609Z,52.50
2017-08-27T17:27:06.289Z,52.70
2017-08-27T17:29:33.958Z,52.70
2017-08-27T17:32:01.582Z,52.50
2017-08-27T17:34:29.262Z,52.40
2017-08-27T17:36:56.841Z,52.00
2017-08-27T17:39:24.596Z,51.90
2017-08-27T17:41:52.268Z,53.00
2017-08-27T17:44:19.988Z,54.30
2017-08-27T17:46:47.609Z,52.90
2017-08-27T17:49:15.226Z,53.80
2017-08-27T17:51:42.828Z,53.60
2017-08-27T17:54:10.628Z,53.30
2017-08-27T17:56:38.228Z,53.60
2017-08-27T17:59:05.997Z,53.80
2017-08-27T18:01:33.654Z,54.20
2017-08-27T18:04:01.261Z,54.40
2017-08-27T18:06:29.802Z,55.00
2017-08-27T18:08:57.404Z,55.20
2017-08-27T18:11:24.997Z,55.40
2017-08-27T18:13:53.397Z,56.90
2017-08-27T18:16:29.243Z,56.90
2017-08-27T18:18:56.891Z,57.00
2017-08-27T18:21:24.516Z,57.50
2017-08-27T18:23:52.135Z,57.00
2017-08-27T18:26:19.837Z,57.40
2017-08-27T18:28:47.432Z,58.10
2017-08-27T18:31:15.061Z,58.10
2017-08-27T18:33:42.773Z,58.70
2017-08-27T18:36:10.425Z,58.40
2017-08-27T18:38:38.048Z,58.60
2017-08-27T18:41:05.797Z,58.60
2017-08-27T18:43:33.379Z,59.00
2017-08-27T18:46:01.075Z,59.30
2017-08-27T18:48:28.659Z,59.00
2017-08-27T18:50:56.291Z,60.10
2017-08-27T18:53:23.926Z,59.90
2017-08-27T18:58:29.690Z,64.20
2017-08-27T19:00:57.415Z,66.20
2017-08-27T19:03:25.065Z,66.50
2017-08-27T19:05:52.660Z,64.70
2017-08-27T19:08:20.358Z,64.90
2017-08-27T19:10:47.990Z,63.90
2017-08-27T19:13:19.954Z,63.30
2017-08-27T19:15:55.756Z,63.30
2017-08-27T19:18:23.428Z,63.10
2017-08-27T19:20:51.128Z,62.90
2017-08-27T19:23:18.816Z,64.10
2017-08-27T19:25:46.457Z,63.00
2017-08-27T19:28:14.141Z,63.80
2017-08-27T19:30:41.773Z,64.90
2017-08-27T19:33:09.582Z,65.30
2017-08-27T19:35:37.710Z,64.40
2017-08-27T19:38:07.587Z,66.40
2017-08-27T19:40:36.156Z,68.70
2017-08-27T19:43:03.876Z,68.40
2017-08-27T19:45:31.483Z,67.10
2017-08-27T19:48:02.600Z,67.10
2017-08-27T19:50:30.570Z,68.90
2017-08-27T19:52:58.432Z,69.30
2017-08-27T19:55:26.224Z,68.40
2017-08-27T19:57:53.825Z,69.30
2017-08-27T20:00:26.808Z,72.00
2017-08-27T20:02:54.629Z,72.20
2017-08-27T20:05:23.490Z,70.90
2017-08-27T20:07:51.146Z,73.30
2017-08-27T20:10:19.844Z,74.20
2017-08-27T20:12:47.528Z,74.50
2017-08-27T20:15:16.104Z,73.50
2017-08-27T20:17:44.717Z,75.30
2017-08-27T20:20:12.325Z,73.50
2017-08-27T20:22:40.144Z,73.30
2017-08-27T20:25:07.892Z,74.90
2017-08-27T20:27:35.583Z,76.30
2017-08-27T20:30:03.521Z,74.00
2017-08-27T20:32:31.258Z,75.40
2017-08-27T20:34:58.878Z,75.70
2017-08-27T20:37:26.529Z,75.80
2017-08-27T20:39:54.387Z,75.70
2017-08-27T20:42:22.149Z,77.10
2017-08-27T20:44:50.020Z,76.90
2017-08-27T20:47:18.151Z,76.40
2017-08-27T20:49:46.209Z,76.00
2017-08-27T20:52:13.929Z,76.70
2017-08-27T20:54:41.608Z,77.20
2017-08-27T20:57:09.538Z,77.50
2017-08-27T20:59:37.376Z,76.20
2017-08-27T21:02:05.416Z,78.30
2017-08-27T21:04:33.356Z,79.00
2017-08-27T21:07:01.186Z,80.10
2017-08-27T21:09:29.129Z,80.40
2017-08-27T21:11:56.817Z,79.80
2017-08-27T21:14:24.558Z,80.60
2017-08-27T21:16:52.186Z,80.90
2017-08-27T21:19:23.013Z,81.70
2017-08-27T21:21:50.645Z,82.50
2017-08-27T21:24:18.305Z,82.80
2017-08-27T21:26:45.962Z,83.40
2017-08-27T21:29:13.581Z,83.60
2017-08-27T21:31:41.209Z,84.30
2017-08-27T21:34:08.793Z,84.10
2017-08-27T21:36:36.417Z,84.70
2017-08-27T21:39:09.391Z,85.20
2017-08-27T21:41:37.158Z,85.60
2017-08-27T21:44:04.742Z,85.80
2017-08-27T21:46:42.228Z,85.30
2017-08-27T21:49:14.392Z,85.80
2017-08-27T21:52:03.315Z,85.70
2017-08-27T21:54:31.072Z,85.70
2017-08-27T21:57:01.904Z,86.10
2017-08-27T22:02:28.203Z,86.90
2017-08-27T22:04:56.794Z,86.70
2017-08-27T22:07:24.429Z,87.00
2017-08-27T22:10:13.940Z,87.50
2017-08-27T22:12:41.557Z,88.10
2017-08-27T22:15:09.158Z,88.00
2017-08-27T22:17:36.825Z,88.40
2017-08-27T22:20:04.419Z,88.60
2017-08-27T22:22:32.113Z,88.50
2017-08-27T22:24:59.775Z,88.60
2017-08-27T22:27:27.456Z,89.30
2017-08-27T22:30:01.871Z,89.90
2017-08-27T22:32:29.495Z,89.50
2017-08-27T22:34:57.119Z,89.50
2017-08-27T22:37:24.724Z,89.40
2017-08-27T22:39:52.334Z,88.70
2017-08-27T22:42:19.929Z,88.70
2017-08-27T22:44:47.604Z,88.40
2017-08-27T22:47:15.200Z,89.60
2017-08-27T22:49:42.847Z,89.80
2017-08-27T22:52:10.711Z,90.10
2017-08-27T22:54:38.362Z,90.30
2017-08-27T22:57:14.710Z,90.60
2017-08-27T22:59:42.381Z,90.20
2017-08-27T23:02:09.982Z,90.10
2017-08-27T23:04:37.633Z,90.30
2017-08-27T23:07:05.272Z,90.10
2017-08-27T23:09:32.870Z,90.10
2017-08-27T23:12:02.470Z,90.10
2017-08-27T23:14:30.195Z,90.10
2017-08-27T23:16:57.798Z,90.20
2017-08-27T23:19:25.495Z,90.10
2017-08-27T23:21:53.115Z,89.60
2017-08-27T23:24:20.759Z,90.10
2017-08-27T23:26:48.403Z,90.40
2017-08-27T23:29:16.034Z,90.70
2017-08-27T23:31:43.678Z,90.90
2017-08-27T23:34:11.340Z,90.90
2017-08-27T23:36:38.924Z,90.80
2017-08-27T23:39:06.513Z,91.10
2017-08-27T23:41:34.178Z,91.40
2017-08-27T23:44:01.787Z,91.20
2017-08-27T23:46:29.376Z,90.70
2017-08-27T23:48:57.048Z,91.10
2017-08-27T23:51:24.653Z,91.00
2017-08-27T23:53:52.260Z,91.10
2017-08-27T23:56:19.877Z,91.20
2017-08-27T23:58:47.526Z,91.30
